NWS Home NWS Lubbock West Texas Mesonet                      Daily Summary For 02/25/2018

Latest   N   C   S   Daily Sum   3hrΔ   24hrΔ   Soil Data 
Site Map   24hr Precip   72hr Precip   Google Plot

Previous  Date  


Station Time of Last Max Temp Min Temp Max/Min Dew Pt. Max/Min RH 10m Avg Wind 2m Avg Wind Peak Gust @ 33ft (mph) Potential Evapotranspiration
mm/day or in/day
Rain Sum Solar Rad
MJ/m^2
% Clear Day Red Flag
Abernathy 5ENE 11:40 AM 57 19 16 /6 69 / 13 8.3  (W) 5.1 23.8 mph 257° @ 1135 AM 2.5 or 0.1 0.00 6.6 33.1 0
Adrian 6WSW 11:40 AM 50 31 9 /1 28 / 17 15.1  (W) 10.8 31.5 mph 274° @ 1140 AM 3 or 0.12 0.00 6.1 31 0
Aiken 3WSW 11:40 AM 56 21 20 /8 66 / 15 7.9  (SW) 4.7 22.9 mph 231° @ 1053 AM 2.3 or 0.09 0.00 6.8 34.3 0
Amarillo 15NNW 11:40 AM 55 24 10 /-0 38 / 16 7.5  (SW) 3.4 22.1 mph 210° @ 0230 AM 2.3 or 0.09 0.00 6.1 31.4 0
Amarillo 7SSE 11:40 AM 56 20 7 /-1 42 / 13 10.7  (SW) 6.7 28.3 mph 238° @ 1128 AM 3 or 0.12 0.00 6.5 33.2 1
Amarillo 9NNE 11:40 AM 56 18 10 /1 52 / 15 8.8  (SW) 5.3 28.9 mph 247° @ 1052 AM 2.5 or 0.1 0.00 5.8 29.8 0
Amherst 1NE 11:40 AM 55 23 15 /5 64 / 13 7.7  (SW) 4.3 26.7 mph 281° @ 1140 AM 2.3 or 0.09 0.00 6.5 32.4 0
Andrews 2E 11:40 AM 63 28 15 /3 52 / 9 8.1  (NW) 4 26.3 mph 235° @ 1015 AM 3 or 0.12 0.00 6.3 30.9 0
Anton 6SSW 11:40 AM 57 17 14 /6 64 / 12 8.1  (W) 5.1 25.7 mph 238° @ 1100 AM 2.5 or 0.1 0.00 6.4 32 0
Aspermont 3NE 11:40 AM 63 26 24 /16 76 / 18 5.8  (S) 2.7 17.1 mph 176° @ 1120 AM 2.3 or 0.09 0.00 6.8 33.8 0
Big Bend NP - Persimmon Gap 11:40 AM 66 39 14 /7 29 / 11 7.3  (N) 5.8 21 mph 10° @ 1215 AM 3 or 0.12 0.00 6.8 31.6 0
Big Lake 1WNW 11:40 AM 67 33 18 /6 46 / 9 3.9  (S) 2.1 20 mph 261° @ 1115 AM 2.3 or 0.09 0.00 5.3 25.4 0
Bootleg 11WNW 11:40 AM 50 19 8 /-1 42 / 15 14  (SW) 8.8 35 mph 258° @ 1128 AM 2.8 or 0.11 0.00 5.2 26.3 4
Boys Ranch 1WSW 11:40 AM 54 17 10 /-2 50 / 16 4.1  (W) 3.4 26.5 mph 270° @ 1131 AM 1.8 or 0.07 0.00 5.9 30.8 0
Brownfield 2S 11:40 AM 62 23 8 /-3 46 / 7 8.8  (W) 4.7 26.6 mph 253° @ 1110 AM 3 or 0.12 0.00 6.8 33.5 0
Canadian 6E 11:40 AM 50 21 29 /14 94 / 25 5.6  (SE) 2.7 17.2 mph 282° @ 1126 AM 1.3 or 0.05 0.00 6.5 34.4 0
Caprock Canyons State Park 11:40 AM 59 30 13 /5 47 / 13 10.1  (W) 7.2 23.5 mph 267° @ 0110 AM 3 or 0.12 0.00 5.8 29.4 0
Childress 2NNE 11:40 AM 63 29 33 /10 97 / 12 8.9  (SE) 5.4 16.9 mph 176° @ 0355 AM 2.5 or 0.1 0.00 6.7 34.2 0
Clarendon 2WSW 11:40 AM 57 20 16 /6 63 / 13 7.3  (SW) 3.7 24.9 mph 231° @ 1125 AM 2.3 or 0.09 0.00 5.9 30.3 0
Claude 12SW 11:40 AM 54 34 8 /-1 26 / 14 11.1  (SW) 7 31.9 mph 283° @ 0559 AM 3 or 0.12 0.00 7 35.7 0
Clyde 2WNW 11:40 AM 63 38 23 /8 43 / 14 6.1  (N) 3.4 18.3 mph 175° @ 1107 AM 2.5 or 0.1 0.00 6.6 32.3 0
Colorado City 5NW 11:40 AM 64 26 28 /18 87 / 17 3.8  (NE) 2.1 18 mph 239° @ 1138 AM 1.8 or 0.07 0.00 6.7 33.1 0
Coyanosa 2N 11:40 AM 69 25 8 /-2 37 / 7 5.6  (SW) 2.4 23.8 mph 239° @ 1129 AM 3 or 0.12 0.00 5.5 26.6 0
Crowell 1E 11:40 AM 58 30 37 /23 99 / 28 4.7  (SE) 2.4 13.1 mph 184° @ 1140 AM 1.5 or 0.06 0.00 6.8 34.5 0
Dell City 11:40 AM 51 17 17 /9 74 / 25 4.3  (NW) 3 11.9 mph 338° @ 0152 AM 1.5 or 0.06 0.00 6.1 29.4 0
Denver City 7WNW 11:40 AM 59 22 7 /-1 47 / 8 11.2  (NW) 6.2 30 mph 241° @ 1110 AM 3.3 or 0.13 0.00 6.4 31.3 35
Dimmitt 2NE 11:40 AM 52 19 10 /5 60 / 16 9.6  (SW) 6.5 31.9 mph 253° @ 1135 AM 2.3 or 0.09 0.00 6.3 32 0
Dora NM 2SW 11:40 AM 52 24 11 /-0 50 / 12 10.4  (SW) 6.5 33 mph 283° @ 1105 AM 2.5 or 0.1 0.00 5.2 25.6 35
Dozier 3W 11:40 AM 59 19 31 /15 99 / 18 4  (SE) 2.4 16.5 mph 228° @ 1046 AM 1.5 or 0.06 0.00 6.7 34.9 0
Earth 9WSW 11:40 AM 54 17 15 /5 74 / 14 8.3  (SW) 6 30.5 mph 256° @ 1136 AM 2.3 or 0.09 0.00 6.4 32 2
Endee NM 2SW 11:40 AM 51 22 8 /0 40 / 16 10.2  (S) 6.5 35.7 mph 259° @ 1129 AM 2.5 or 0.1 0.00 6.1 31.2 0
Floydada 2NNE 11:40 AM 58 20 12 /4 61 / 11 9.6  (SW) 5.4 24.6 mph 229° @ 1140 AM 2.8 or 0.11 0.00 6.8 34.2 0
Fluvanna 3WNW 11:40 AM 61 32 17 /5 48 / 13 8.3  (W) 5.2 25.3 mph 228° @ 1120 AM 2.8 or 0.11 0.00 6.5 32.3 0
Fort Chadbourne 11:40 AM 62 29 34 /20 95 / 20 4.2  (NW) 1.3 16 mph 162° @ 1039 AM 1.8 or 0.07 0.00 6.5 31.8 0
Fort Lancaster 11:40 AM 67 29 21 /12 64 / 12 2.3  (SE) 1.6 9.1 mph 284° @ 0146 AM 1.8 or 0.07 0.00 6.3 30.1 0
Fort Lewis CO 11:40 AM 24 14 15 /5 89 / 45 10.2  (NW) 8.7 28.7 mph 289° @ 1112 AM 0.8 or 0.03 0.00 5.4 28.1 0
Fort McKavett 11:40 AM 67 36 43 /29 98 / 24 2.3  (S) 0.5 12.1 mph 80° @ 0212 AM 1.3 or 0.05 0.00 4.9 23.5 0
Friona 2NE 11:35 AM 52 13 11 /1 70 / 15 9.3  (W) 5.9 36.2 mph 262° @ 1130 AM 2.3 or 0.09 0.00 6.6 33.6 15
Gail 2ESE 11:40 AM 63 29 18 /7 59 / 11 8.4  (NW) 4.5 24 mph 221° @ 1105 AM 3 or 0.12 0.00 5.9 29.2 0
Goodlett 3W 11:40 AM 58 27 33 /20 99 / 23 5.5  (E) 3 11.7 mph 169° @ 1115 AM 1.5 or 0.06 0.00 6.4 32.9 0
Goodnight 11:40 AM 57 25 11 /2 41 / 14 13  (SW) 9 29.8 mph 219° @ 1054 AM 3.3 or 0.13 0.00 6.6 33.9 21
Graham 5SSW 11:40 AM 60 28 14 /6 51 / 12 10.3  (W) 7.6 24.6 mph 210° @ 1045 AM 3.3 or 0.13 0.00 6 29.9 0
Guadalupe Mtns Natl Park 11:40 AM 48 43 6 /-20 21 / 5 25.2  (W) 17.7 45.5 mph 247° @ 1035 AM 4.6 or 0.18 0.00 5.7 26.9 269
Guthrie 10WSW 11:40 AM 63 30 16 /6 49 / 12 5.7  (W) 2.9 19.4 mph 203° @ 1135 AM 2.5 or 0.1 0.00 6 30.1 0
Happy 1E 11:40 AM 55 20 11 /-0 50 / 14 11.5  (W) 8.7 33.2 mph 257° @ 1139 AM 2.8 or 0.11 0.00 6.6 33.7 7
Hart 3N 11:40 AM 53 17 14 /7 67 / 16 8.8  (SW) 4 30.2 mph 251° @ 1140 AM 2.3 or 0.09 0.00 6.5 32.8 0
Haskell 1NW 11:40 AM 57 31 30 /19 82 / 32 4.5  (W) 1.9 13.5 mph 186° @ 1120 AM 1.8 or 0.07 0.00 6.5 32.4 0
Hereford 2NW 11:40 AM 53 20 10 /-1 45 / 15 11.2  (SW) 7.8 31.3 mph 259° @ 1135 AM 2.8 or 0.11 0.00 6.4 32.5 5
Hobbs NM 5NW 11:40 AM 59 23 4 /-3 36 / 8 8.2  (NW) 5.2 31.6 mph 259° @ 1120 AM 2.8 or 0.11 0.00 6.3 30.6 13
Jayton 1SSE 11:40 AM 63 30 21 /10 68 / 13 6.8  (SE) 4.4 24.8 mph 207° @ 1130 AM 2.5 or 0.1 0.00 6.4 31.8 0
Junction 1SSW 11:40 AM 66 39 46 /39 100 / 41 1.7  (N) 1 8.9 mph 17° @ 0242 AM 1.3 or 0.05 0.00 5.7 27.1 0
Knox City 3NW 11:40 AM 61 28 28 /23 87 / 25 4.8  (S) 2.5 10.2 mph 27° @ 0105 AM 1.8 or 0.07 0.00 5.9 29.5 0
Lake Alan Henry 1NW 11:40 AM 62 29 21 /6 63 / 11 5.6  (SW) 2.7 24.6 mph 222° @ 1123 AM 2.3 or 0.09 0.00 6.8 33.9 0
Lamesa 2SE 11:40 AM 63 23 22 /7 81 / 11 7.1  (W) 4.1 24.9 mph 241° @ 1140 AM 2.5 or 0.1 0.00 6 29.6 0
Lesley 2S 11:40 AM 60 21 28 /8 92 / 18 4.9  (SW) 3.8 12.4 mph 244° @ 1132 AM 1.8 or 0.07 0.00 7.5 38.5 0
Levelland 4S 11:40 AM 58 19 7 /-1 54 / 9 8.2  (W) 4.9 25.9 mph 251° @ 1110 AM 2.8 or 0.11 0.00 6.4 31.8 0
Lomax 1SSE 11:40 AM 64 25 25 /8 83 / 11 4.9  (N) 2.7 28.4 mph 253° @ 1058 AM 2 or 0.08 0.00 7.2 35.3 3
Lubbock 3WNW TTU 11:40 AM 60 20 7 /-3 50 / 7 5.7  (W) 2.3 21.8 mph 244° @ 1135 AM 2.3 or 0.09 0.00 6.6 32.8 0
McCamey 1SSW 11:40 AM 63 28 19 /6 66 / 12 2.6  (SW) 1.8 9.9 mph 6° @ 0330 AM 1.8 or 0.07 0.00 6.2 29.7 0
McLean 1E 11:40 AM 56 28 30 /7 92 / 14 7.4  (SE) 4.4 25.9 mph 219° @ 1140 AM 2 or 0.08 0.00 8.2 42.4 0
Memphis 1NE 11:40 AM 57 21 30 /12 98 / 17 4.4  (NE) 1.7 18.2 mph 253° @ 1015 AM 1.5 or 0.06 0.00 5.7 29.2 0
Menard 2NW 11:40 AM 65 38 45 /28 98 / 27 3  (NW) 2.2 13.4 mph 109° @ 1048 AM 1.3 or 0.05 0.00 4.6 21.9 0
Mertzon 3NNE 11:40 AM 67 29 36 /26 90 / 24 4.2  (SW) 1.9 11 mph 148° @ 1039 AM 2 or 0.08 0.00 6.2 30 0
Morton 1ENE 11:40 AM 57 21 10 /-1 53 / 9 7.4  (W) 4.3 25.1 mph 296° @ 1135 AM 2.5 or 0.1 0.00 6.4 31.8 0
Muleshoe 2SSW 11:40 AM 52 14 18 /4 83 / 14 5.7  (SW) 2.8 31.7 mph 281° @ 1135 AM 1.8 or 0.07 0.00 6.4 32.1 5
New Home 11:40 AM 60 22 10 /2 45 / 11 7.2  (NW) 3.5 23.2 mph 252° @ 1140 AM 2.8 or 0.11 0.00 6.4 31.8 0
Northfield 1S 11:35 AM 63 25 15 /7 57 / 11 7.1  (SW) 2.8 20.1 mph 232° @ 1130 AM 2.8 or 0.11 0.00 6 30.5 0
O'Donnell 1N 11:40 AM 62 21 11 /-0 54 / 8 8.6  (SW) 5 27.9 mph 230° @ 1135 AM 3 or 0.12 0.00 5.3 26 0
Odell 4ENE 11:40 AM 55 32 41 /31 98 / 44 6.9  (E) 4.3 15.7 mph 151° @ 1129 AM 1.3 or 0.05 0.08 5.9 30.3 0
Olton 6S 11:40 AM 55 20 16 /5 69 / 13 9.6  (SW) 5.5 23.8 mph 235° @ 1040 AM 2.5 or 0.1 0.00 6.2 31.2 0
Paducah 10SW 11:40 AM 63 28 17 /9 62 / 12 10.2  (W) 6.2 21.3 mph 222° @ 1135 AM 3.3 or 0.13 0.00 5.4 27.5 0
Palo Duro 4E (JA Ranch) 11:40 AM 60 17 15 /3 67 / 14 6.4  (W) 4.1 21.6 mph 238° @ 1140 AM 2.3 or 0.09 0.00 6.9 35.4 0
Palo Duro Canyon SP Floor 11:40 AM 59 23 10 /1 40 / 13 4.3  (NE) 1.8 20 mph 287° @ 1140 AM 2 or 0.08 0.00 5.9 30.3 0
Palo Duro Canyon State Park Rim 11:40 AM 57 29 9 /-1 33 / 13 10.3  (W) 5.9 24 mph 243° @ 1120 AM 3 or 0.12 0.00 6.6 33.8 0
Pampa 2E 11:40 AM 52 22 22 /5 86 / 19 9.2  (SE) 5.8 18.2 mph 305° @ 1135 AM 2.3 or 0.09 0.00 5.7 29.6 0
Panhandle 1SSW 11:40 AM 57 21 10 /0 45 / 14 10.3  (SW) 7.3 30.8 mph 241° @ 1038 AM 2.8 or 0.11 0.00 6.7 34.3 12
Plains 3N 11:40 AM 60 19 6 /-8 46 / 6 9.1  (NW) 6 27 mph 247° @ 1110 AM 3 or 0.12 0.00 5 24.8 0
Plainview 1S 11:40 AM 55 22 17 /10 67 / 17 6.5  (SW) 4 21.9 mph 223° @ 1115 AM 2 or 0.08 0.00 6.1 30.6 0
Post 1NE 11:40 AM 62 31 12 /5 39 / 10 9  (NW) 6 21.8 mph 223° @ 1140 AM 3.3 or 0.13 0.00 6.9 34.2 0
Ralls 1SE 11:40 AM 58 23 8 /3 44 / 11 8.8  (W) 5.4 22.4 mph 222° @ 1115 AM 2.8 or 0.11 0.00 6.8 34.1 0
Reese Center 11:40 AM 58 17 9 /0 56 / 10 8.5  (W) 5.1 25.9 mph 256° @ 1120 AM 2.8 or 0.11 0.00 7.1 35.4 0
Roaring Springs 3N 11:40 AM 61 25 14 /9 60 / 13 9.1  (W) 6.1 24.6 mph 202° @ 1135 AM 2.8 or 0.11 0.00 5.3 26.9 0
San Angelo 7NW 11:40 AM 62 32 32 /23 83 / 23 4.8  (NW) 3.7 11.3 mph 307° @ 0655 AM 1.8 or 0.07 0.00 4.6 22.3 0
Seagraves 1SW 11:40 AM 62 21 10 /1 55 / 9 8.2  (NW) 3.7 31.7 mph 245° @ 1055 AM 3 or 0.12 0.00 5.5 26.9 30
Seminole 2NNE 11:40 AM 61 23 10 /-2 51 / 8 7.8  (W) 4.2 26.8 mph 247° @ 1140 AM 2.8 or 0.11 0.00 6.5 32 0
Seymour 3NW 11:40 AM 59 30 37 /27 99 / 30 4.5  (E) 2.6 13.2 mph 197° @ 0950 AM 1.5 or 0.06 0.00 7 35.4 0
Sierra Blanca 1SSE 11:40 AM 58 30 5 /-0 31 / 10 3  (NE) 2 21.3 mph 276° @ 1130 AM 1.8 or 0.07 0.00 6.8 31.9 0
Silverton 7ESE 11:40 AM 58 20 15 /6 64 / 13 12  (SW) 7.6 26.4 mph 214° @ 1135 AM 3 or 0.12 0.00 6.7 34.2 0
Slaton 2NE 11:40 AM 59 22 7 /2 44 / 10 9.8  (W) 6.7 22 mph 236° @ 1045 AM 3 or 0.12 0.00 6.2 30.7 0
Snyder 3E 11:40 AM 61 31 25 /16 66 / 21 5.8  (NW) 2 21.3 mph 195° @ 1130 AM 2.3 or 0.09 0.00 5.5 27.1 0
Snyder 3SSW 11:40 AM 61 28 25 /12 72 / 20 6  (SE) 3.4 22.8 mph 210° @ 1139 AM 2.3 or 0.09 0.00 7.1 35 0
Spur 1W 11:40 AM 60 24 19 /8 70 / 13 6.7  (N) 3.3 22.3 mph 225° @ 1100 AM 2.3 or 0.09 0.00 6.3 31.4 0
St. Lawrence 5SW 11:40 AM 63 28 28 /10 72 / 14 6.2  (NE) 2.8 18.5 mph 231° @ 1115 AM 2.5 or 0.1 0.00 6.8 33 0
Stamford 5ESE 11:40 AM 60 30 40 /15 91 / 27 4.3  (NW) 1.5 12.9 mph 75° @ 0248 AM 1.5 or 0.06 0.00 7 35 0
Sterling City 4WSW 11:40 AM 67 22 32 /12 92 / 12 3.1  (S) 1.7 17.1 mph 196° @ 1107 AM 1.8 or 0.07 0.00 5.9 28.6 0
Stinnett 1NNW 11:40 AM 49 26 12 /3 48 / 21 13.7  (S) 9.5 23.5 mph 264° @ 0614 AM 2.8 or 0.11 0.00 6.3 33 0
Sundown 8WSW 11:35 AM 58 18 10 /-1 53 / 9 10  (W) 4.7 27.2 mph 251° @ 1055 AM 3 or 0.12 0.00 5.3 26.1 0
Sweetwater 11SW 11:40 AM 64 37 26 /11 52 / 16 6.5  (NE) 3.9 26.2 mph 246° @ 1133 AM 2.8 or 0.11 0.00 7 34.1 0
Tahoka 3NNE 11:40 AM 62 23 9 /-1 47 / 8 8.1  (NW) 4.1 21.5 mph 214° @ 1022 AM 3 or 0.12 0.00 6.7 33.4 0
Tarzan 2WNW 11:40 AM 64 25 15 /7 59 / 11 7.4  (NW) 4.6 27.2 mph 231° @ 1103 AM 2.8 or 0.11 0.00 7.3 35.6 3
Tatum NM 2SW 11:40 AM 58 15 9 /-2 61 / 8 9.1  (W) 2.9 26.1 mph 268° @ 1140 AM 2.8 or 0.11 0.00 6.5 32.2 0
Throckmorton 1SW 11:40 AM 62 28 36 /21 99 / 26 3.5  (N) 1.7 14.5 mph 155° @ 1140 AM 1.5 or 0.06 0.00 7 35.2 0
Tulia 2ENE 11:40 AM 55 24 14 /7 56 / 19 12.5  (SW) 8.8 27.2 mph 238° @ 1115 AM 2.8 or 0.11 0.00 5.8 29.2 0
Turkey 2WSW 11:40 AM 59 28 17 /8 59 / 14 9.1  (W) 6 23.2 mph 215° @ 1140 AM 2.8 or 0.11 0.00 6.1 31.1 0
Umbarger 3NNE 11:40 AM 54 19 10 /-3 44 / 15 10.8  (SW) 7 32.7 mph 252° @ 1126 AM 2.8 or 0.11 0.00 6.4 32.8 3
Van Horn 3ENE 11:40 AM 61 24 5 /-3 32 / 10 8.7  (S) 4.7 18.6 mph 211° @ 1134 AM 3 or 0.12 0.00 6.7 31.7 0
Vigo Park 11:40 AM 56 17 13 /5 64 / 16 11.6  (W) 6.9 30 mph 231° @ 1140 AM 2.8 or 0.11 0.00 6.1 30.8 0
Wall 2E 11:40 AM 64 35 39 /28 91 / 26 5.4  (SW) 3.5 9.9 mph 146° @ 1133 AM 2 or 0.08 0.00 6.8 32.8 0
Weinert 2NNE 11:40 AM 59 29 35 /23 91 / 35 4.7  (W) 2.2 12.9 mph 166° @ 0304 AM 1.8 or 0.07 0.00 7 35.2 0
Welch 11:40 AM 64 19 11 /0 51 / 8 7.6  (N) 4.7 33.2 mph 265° @ 1134 AM 3 or 0.12 0.00 6.7 33.2 20
White River Lake 6NW 11:40 AM 60 32 8 /5 36 / 11 9.2  (W) 6.3 23.4 mph 191° @ 1040 AM 3 or 0.12 0.00 6.7 33.3 0
Wolfforth 6SSW 11:40 AM 59 19 8 /-1 46 / 10 8.6  (W) 5.3 27.4 mph 249° @ 1130 AM 2.8 or 0.11 0.00 6.3 31.4 0

WestTexas Mesonet Home    Site Map/Menu  National Weather Service Lubbock   Soil Data   Latest Observation Page   Previous  Date